createdAt,value
2022-08-08T00:01:00.575Z,13.03
2022-08-08T00:03:43.338Z,12.93
2022-08-08T00:06:28.249Z,12.92
2022-08-08T00:09:09.429Z,12.88
2022-08-08T00:11:46.964Z,12.85
2022-08-08T00:14:57.047Z,12.74
2022-08-08T00:18:02.478Z,12.72
2022-08-08T00:20:36.104Z,12.70
2022-08-08T00:23:07.953Z,12.73
2022-08-08T00:25:46.166Z,12.58
2022-08-08T00:28:34.888Z,12.62
2022-08-08T00:32:29.361Z,12.55
2022-08-08T00:34:22.186Z,12.60
2022-08-08T00:37:05.544Z,12.61
2022-08-08T00:41:09.040Z,12.60
2022-08-08T00:42:46.570Z,12.51
2022-08-08T00:45:51.437Z,12.55
2022-08-08T00:49:05.171Z,12.53
2022-08-08T00:52:20.132Z,12.49
2022-08-08T00:55:05.526Z,12.04
2022-08-08T00:58:13.548Z,12.17
2022-08-08T01:00:50.593Z,12.29
2022-08-08T01:04:02.094Z,12.24
2022-08-08T01:07:17.598Z,12.35
2022-08-08T01:10:18.461Z,12.37
2022-08-08T01:13:14.975Z,12.39
2022-08-08T01:16:16.886Z,12.28
2022-08-08T01:20:01.229Z,12.30
2022-08-08T01:22:35.412Z,12.27
2022-08-08T01:25:40.346Z,12.27
2022-08-08T01:28:47.201Z,12.28
2022-08-08T01:32:13.515Z,12.25
2022-08-08T01:35:11.918Z,12.27
2022-08-08T01:38:15.193Z,12.20
2022-08-08T01:40:57.961Z,12.19
2022-08-08T01:43:38.795Z,12.16
2022-08-08T01:46:24.727Z,12.18
2022-08-08T01:49:01.614Z,11.96
2022-08-08T01:52:41.057Z,12.08
2022-08-08T01:55:44.891Z,12.03
2022-08-08T01:58:10.979Z,11.92
2022-08-08T02:00:44.610Z,11.93
2022-08-08T02:03:54.629Z,12.00
2022-08-08T02:06:36.724Z,11.92
2022-08-08T02:10:02.421Z,11.98
2022-08-08T02:12:22.306Z,11.75
2022-08-08T02:14:59.330Z,11.66
2022-08-08T02:17:42.471Z,11.64
2022-08-08T02:21:02.388Z,11.67
2022-08-08T02:23:16.321Z,11.64
2022-08-08T02:25:52.418Z,11.72
2022-08-08T02:28:35.071Z,11.75
2022-08-08T02:31:44.028Z,11.77
2022-08-08T02:34:08.777Z,11.65
2022-08-08T02:36:41.651Z,11.66
2022-08-08T02:39:42.313Z,11.65
2022-08-08T02:42:48.241Z,11.56
2022-08-08T02:45:56.822Z,11.59
2022-08-08T02:48:48.358Z,11.55
2022-08-08T02:51:56.766Z,11.49
2022-08-08T02:54:54.387Z,11.55
2022-08-08T02:57:59.077Z,11.52
2022-08-08T03:01:08.591Z,11.60
2022-08-08T03:05:04.333Z,11.63
2022-08-08T03:07:41.661Z,11.52
2022-08-08T03:10:43.467Z,11.49
2022-08-08T03:16:03.868Z,11.46
2022-08-08T03:16:48.899Z,11.48
2022-08-08T03:19:51.319Z,11.34
2022-08-08T03:22:38.814Z,11.40
2022-08-08T03:25:14.644Z,11.38
2022-08-08T03:27:47.456Z,11.32
2022-08-08T03:30:24.158Z,11.28
2022-08-08T03:33:54.733Z,11.16
2022-08-08T03:36:01.009Z,11.21
2022-08-08T03:38:56.191Z,11.12
2022-08-08T03:42:13.378Z,11.09
2022-08-08T03:44:06.638Z,11.06
2022-08-08T03:46:47.153Z,11.05
2022-08-08T03:49:56.677Z,10.93
2022-08-08T03:52:12.981Z,10.92
2022-08-08T03:55:02.252Z,10.95
2022-08-08T03:58:30.032Z,10.97
2022-08-08T04:00:26.765Z,11.06
2022-08-08T04:03:11.185Z,10.97
2022-08-08T04:05:49.902Z,10.94
2022-08-08T04:08:33.057Z,10.83
2022-08-08T04:11:10.673Z,11.09
2022-08-08T04:14:04.069Z,11.16
2022-08-08T04:16:40.757Z,11.17
2022-08-08T04:19:23.036Z,11.20
2022-08-08T04:21:54.164Z,11.32
2022-08-08T04:24:29.450Z,11.30
2022-08-08T04:27:01.057Z,11.41
2022-08-08T04:29:36.845Z,11.51
2022-08-08T04:32:08.278Z,11.42
2022-08-08T04:34:42.845Z,11.43
2022-08-08T04:37:31.459Z,11.52
2022-08-08T04:40:04.873Z,11.49
2022-08-08T04:42:46.719Z,11.59
2022-08-08T04:45:28.575Z,11.68
2022-08-08T04:48:00.447Z,11.75
2022-08-08T04:50:38.715Z,11.85
2022-08-08T04:53:14.126Z,11.91
2022-08-08T04:56:01.281Z,11.97
2022-08-08T04:58:33.108Z,12.12
2022-08-08T05:01:06.020Z,12.19
2022-08-08T05:04:09.493Z,12.27
2022-08-08T05:06:29.007Z,12.33
2022-08-08T05:09:02.124Z,12.18
2022-08-08T05:11:38.868Z,12.49
2022-08-08T05:14:12.405Z,12.65
2022-08-08T05:16:51.869Z,12.67
2022-08-08T05:20:11.634Z,12.88
2022-08-08T05:22:17.637Z,13.04
2022-08-08T05:24:48.987Z,13.14
2022-08-08T05:27:20.016Z,13.33
2022-08-08T05:29:50.361Z,13.57
2022-08-08T05:32:24.565Z,13.77
2022-08-08T05:35:04.471Z,13.81
2022-08-08T05:37:51.959Z,13.89
2022-08-08T05:40:28.377Z,14.27
2022-08-08T05:43:38.193Z,14.48
2022-08-08T05:45:53.026Z,14.74
2022-08-08T05:48:28.796Z,14.86
2022-08-08T05:51:13.556Z,15.02
2022-08-08T05:54:24.482Z,15.15
2022-08-08T05:56:31.613Z,15.33
2022-08-08T05:59:05.004Z,15.47
2022-08-08T06:01:52.803Z,15.64
2022-08-08T06:04:30.175Z,15.93
2022-08-08T06:07:01.932Z,16.05
2022-08-08T06:10:00.618Z,16.21
2022-08-08T06:12:29.926Z,16.38
2022-08-08T06:15:02.847Z,16.56
2022-08-08T06:17:50.824Z,16.44
2022-08-08T06:20:23.082Z,16.72
2022-08-08T06:22:53.885Z,16.98
2022-08-08T06:26:35.776Z,17.29
2022-08-08T06:28:16.162Z,17.73
2022-08-08T06:30:45.935Z,18.32
2022-08-08T06:33:15.206Z,18.51
2022-08-08T06:36:08.052Z,18.46
2022-08-08T06:38:39.374Z,18.83
2022-08-08T06:41:13.319Z,19.01
2022-08-08T06:43:47.734Z,18.98
2022-08-08T06:46:30.025Z,19.13
2022-08-08T06:48:58.458Z,19.05
2022-08-08T06:51:45.836Z,19.63
2022-08-08T06:54:19.106Z,20.08
2022-08-08T06:56:51.526Z,20.37
2022-08-08T06:59:21.275Z,20.86
2022-08-08T07:02:26.451Z,21.79
2022-08-08T07:04:54.145Z,23.05
2022-08-08T07:07:35.248Z,23.59
2022-08-08T07:10:08.153Z,23.60
2022-08-08T07:12:47.762Z,24.64
2022-08-08T07:15:40.985Z,24.05
2022-08-08T07:18:35.707Z,25.15
2022-08-08T07:21:18.669Z,24.96
2022-08-08T07:24:00.907Z,24.56
2022-08-08T07:26:35.504Z,24.67
2022-08-08T07:29:08.209Z,25.39
2022-08-08T07:31:41.205Z,25.69
2022-08-08T07:34:26.747Z,26.14
2022-08-08T07:37:11.771Z,26.36
2022-08-08T07:39:45.460Z,27.15
2022-08-08T07:42:32.799Z,26.40
2022-08-08T07:45:02.165Z,27.22
2022-08-08T07:47:38.349Z,27.15
2022-08-08T07:50:10.068Z,26.64
2022-08-08T07:52:43.455Z,26.10
2022-08-08T07:55:19.294Z,26.93
2022-08-08T07:57:55.746Z,25.92
2022-08-08T08:00:25.530Z,25.65
2022-08-08T08:03:09.838Z,26.59
2022-08-08T08:05:43.859Z,25.26
2022-08-08T08:08:21.366Z,26.79
2022-08-08T08:10:53.874Z,26.81
2022-08-08T08:13:43.122Z,27.31
2022-08-08T08:16:17.304Z,27.57
2022-08-08T08:18:55.721Z,27.68
2022-08-08T08:21:44.782Z,27.49
2022-08-08T08:24:32.182Z,27.87
2022-08-08T08:27:09.307Z,27.91
2022-08-08T08:29:38.067Z,27.58
2022-08-08T08:32:08.954Z,28.28
2022-08-08T08:34:37.978Z,28.30
2022-08-08T08:37:12.410Z,27.71
2022-08-08T08:40:02.089Z,27.80
2022-08-08T08:42:36.251Z,28.29
2022-08-08T08:45:21.120Z,28.13
2022-08-08T08:47:58.383Z,28.21
2022-08-08T08:50:32.718Z,28.23
2022-08-08T08:53:04.738Z,28.10
2022-08-08T08:55:52.976Z,27.74
2022-08-08T08:58:28.325Z,28.00
2022-08-08T09:01:08.591Z,27.99
2022-08-08T09:03:45.946Z,27.68
2022-08-08T09:06:26.802Z,27.67
2022-08-08T09:09:04.677Z,27.31
2022-08-08T09:11:35.164Z,28.07
2022-08-08T09:14:17.480Z,28.15
2022-08-08T09:16:46.083Z,28.26
2022-08-08T09:21:53.653Z,28.51
2022-08-08T09:22:07.722Z,27.34
2022-08-08T09:24:36.771Z,27.75
2022-08-08T09:27:15.033Z,27.99
2022-08-08T09:30:00.200Z,28.02
2022-08-08T09:32:36.934Z,27.80
2022-08-08T09:35:09.859Z,27.78
2022-08-08T09:38:01.062Z,28.31
2022-08-08T09:40:44.104Z,28.31
2022-08-08T09:43:23.973Z,27.91
2022-08-08T09:46:02.853Z,28.48
2022-08-08T09:48:36.333Z,28.36
2022-08-08T09:51:06.846Z,28.12
2022-08-08T09:53:56.516Z,28.55
2022-08-08T09:56:27.768Z,28.46
2022-08-08T09:58:58.728Z,28.77
2022-08-08T10:01:59.293Z,29.01
2022-08-08T10:04:41.275Z,29.16
2022-08-08T10:07:14.009Z,28.71
2022-08-08T10:10:00.203Z,28.59
2022-08-08T10:12:52.527Z,27.96
2022-08-08T10:15:25.050Z,28.23
2022-08-08T10:18:09.153Z,28.52
2022-08-08T10:20:51.456Z,27.94
2022-08-08T10:23:41.878Z,27.81
2022-08-08T10:26:29.729Z,27.87
2022-08-08T10:29:04.245Z,27.33
2022-08-08T10:31:50.943Z,27.32
2022-08-08T10:34:22.040Z,27.47
2022-08-08T10:36:50.877Z,27.31
2022-08-08T10:39:23.355Z,27.62
2022-08-08T10:42:14.766Z,27.57
2022-08-08T10:44:43.493Z,27.86
2022-08-08T10:47:14.574Z,28.15
2022-08-08T10:50:01.152Z,28.64
2022-08-08T10:52:32.278Z,28.65
2022-08-08T10:55:06.232Z,28.48
2022-08-08T10:57:49.459Z,28.81
2022-08-08T11:00:22.633Z,29.11
2022-08-08T11:02:53.810Z,29.29
2022-08-08T11:05:23.413Z,29.55
2022-08-08T11:08:37.005Z,29.80
2022-08-08T11:10:41.583Z,29.36
2022-08-08T11:16:00.751Z,29.98
2022-08-08T11:18:30.695Z,30.40
2022-08-08T11:20:59.874Z,30.23
2022-08-08T11:23:32.830Z,29.21
2022-08-08T11:26:00.814Z,29.28
2022-08-08T11:28:30.748Z,29.50
2022-08-08T11:31:03.945Z,29.76
2022-08-08T11:33:51.555Z,29.65
2022-08-08T11:36:23.233Z,29.24
2022-08-08T11:38:57.194Z,29.60
2022-08-08T11:41:27.638Z,29.87
2022-08-08T11:43:57.857Z,30.15
2022-08-08T11:46:28.056Z,30.04
2022-08-08T11:48:58.803Z,30.10
2022-08-08T11:51:37.284Z,30.26
2022-08-08T11:54:26.634Z,30.52
2022-08-08T11:56:56.659Z,29.78
2022-08-08T12:00:01.640Z,30.26
2022-08-08T12:02:32.153Z,30.19
2022-08-08T12:05:02.042Z,29.98
2022-08-08T12:07:31.996Z,29.64
2022-08-08T12:10:11.876Z,28.95
2022-08-08T12:12:48.077Z,29.21
2022-08-08T12:15:28.730Z,28.86
2022-08-08T12:17:56.430Z,29.11
2022-08-08T12:20:25.499Z,29.73
2022-08-08T12:22:54.766Z,30.57
2022-08-08T12:25:30.087Z,30.09
2022-08-08T12:28:15.720Z,29.83
2022-08-08T12:30:49.951Z,30.24
2022-08-08T12:33:19.498Z,30.38
2022-08-08T12:35:52.454Z,30.87
2022-08-08T12:38:30.242Z,31.39
2022-08-08T12:41:18.362Z,31.23
2022-08-08T12:44:00.093Z,31.23
2022-08-08T12:46:28.805Z,31.42
2022-08-08T12:49:43.456Z,31.43
2022-08-08T12:51:58.504Z,30.95
2022-08-08T12:54:33.076Z,31.69
2022-08-08T12:57:14.037Z,31.93
2022-08-08T13:00:03.838Z,32.39
2022-08-08T13:02:35.814Z,31.82
2022-08-08T13:05:26.002Z,31.66
2022-08-08T13:08:04.300Z,30.99
2022-08-08T13:10:36.559Z,31.07
2022-08-08T13:13:28.058Z,31.45
2022-08-08T13:15:56.029Z,32.21
2022-08-08T13:18:27.617Z,32.75
2022-08-08T13:20:55.926Z,33.16
2022-08-08T13:23:35.986Z,33.14
2022-08-08T13:26:14.310Z,32.54
2022-08-08T13:28:45.681Z,33.01
2022-08-08T13:31:17.149Z,33.28
2022-08-08T13:33:49.793Z,33.00
2022-08-08T13:36:26.319Z,31.85
2022-08-08T13:38:54.383Z,32.24
2022-08-08T13:41:23.985Z,31.96
2022-08-08T13:43:57.594Z,32.51
2022-08-08T13:46:26.384Z,33.13
2022-08-08T13:49:11.601Z,33.26
2022-08-08T13:51:53.583Z,33.84
2022-08-08T13:54:21.599Z,33.76
2022-08-08T13:57:00.905Z,32.71
2022-08-08T13:59:33.284Z,32.98
2022-08-08T14:02:10.598Z,32.68
2022-08-08T14:04:52.807Z,32.33
2022-08-08T14:07:22.698Z,32.38
2022-08-08T14:10:05.253Z,32.34
2022-08-08T14:12:43.815Z,32.54
2022-08-08T14:15:31.360Z,31.48
2022-08-08T14:18:35.156Z,31.08
2022-08-08T14:21:03.146Z,30.49
2022-08-08T14:24:07.252Z,30.48
2022-08-08T14:26:29.304Z,29.86
2022-08-08T14:29:01.599Z,29.27
2022-08-08T14:31:36.623Z,29.55
2022-08-08T14:34:23.235Z,30.07
2022-08-08T14:36:55.642Z,30.21
2022-08-08T14:39:24.980Z,31.16
2022-08-08T14:42:03.160Z,31.04
2022-08-08T14:44:35.499Z,30.92
2022-08-08T14:47:21.108Z,31.44
2022-08-08T14:50:05.892Z,31.38
2022-08-08T14:52:43.786Z,30.92
2022-08-08T14:55:14.002Z,31.21
2022-08-08T14:58:03.069Z,31.73
2022-08-08T15:00:34.767Z,32.03
2022-08-08T15:03:15.055Z,32.63
2022-08-08T15:05:53.588Z,32.78
2022-08-08T15:08:34.653Z,31.93
2022-08-08T15:11:07.083Z,31.42
2022-08-08T15:13:40.941Z,31.80
2022-08-08T15:16:25.597Z,31.54
2022-08-08T15:18:55.513Z,31.52
2022-08-08T15:21:23.083Z,31.11
2022-08-08T15:23:57.571Z,30.65
2022-08-08T15:26:25.634Z,30.24
2022-08-08T15:28:54.316Z,30.43
2022-08-08T15:31:55.801Z,30.47
2022-08-08T15:34:18.440Z,29.87
2022-08-08T15:36:57.058Z,30.32
2022-08-08T15:39:25.686Z,30.88
2022-08-08T15:41:53.557Z,31.06
2022-08-08T15:44:22.199Z,30.90
2022-08-08T15:46:50.953Z,31.00
2022-08-08T15:49:22.295Z,30.68
2022-08-08T15:51:51.815Z,29.92
2022-08-08T15:54:38.794Z,29.53
2022-08-08T15:57:08.885Z,29.66
2022-08-08T16:00:05.426Z,29.51
2022-08-08T16:02:30.493Z,29.37
2022-08-08T16:05:00.347Z,28.86
2022-08-08T16:07:39.253Z,28.64
2022-08-08T16:13:04.326Z,27.82
2022-08-08T16:13:33.555Z,27.65
2022-08-08T16:15:58.637Z,27.55
2022-08-08T16:18:34.482Z,27.47
2022-08-08T16:21:06.032Z,26.66
2022-08-08T16:23:55.611Z,26.38
2022-08-08T16:26:33.678Z,26.08
2022-08-08T16:29:04.045Z,26.03
2022-08-08T16:31:35.590Z,25.71
2022-08-08T16:34:04.937Z,25.62
2022-08-08T16:36:34.469Z,25.57
2022-08-08T16:39:10.014Z,25.42
2022-08-08T16:41:50.447Z,25.17
2022-08-08T16:44:28.135Z,24.88
2022-08-08T16:47:16.174Z,24.99
2022-08-08T16:49:43.712Z,25.00
2022-08-08T16:55:20.750Z,24.85
2022-08-08T16:55:25.544Z,24.73
2022-08-08T16:58:14.183Z,24.40
2022-08-08T17:00:37.443Z,24.39
2022-08-08T17:03:05.145Z,24.33
2022-08-08T17:05:44.762Z,24.38
2022-08-08T17:08:14.030Z,24.38
2022-08-08T17:10:53.608Z,24.40
2022-08-08T17:13:27.609Z,24.27
2022-08-08T17:16:16.540Z,24.13
2022-08-08T17:18:45.508Z,24.02
2022-08-08T17:21:13.691Z,23.96
2022-08-08T17:24:00.527Z,24.07
2022-08-08T17:26:30.150Z,23.81
2022-08-08T17:28:58.664Z,23.86
2022-08-08T17:31:43.607Z,23.66
2022-08-08T17:34:48.796Z,23.60
2022-08-08T17:37:03.343Z,23.75
2022-08-08T17:40:04.826Z,23.81
2022-08-08T17:42:20.758Z,23.64
2022-08-08T17:44:50.813Z,23.76
2022-08-08T17:47:27.683Z,23.60
2022-08-08T17:50:02.598Z,23.55
2022-08-08T17:52:31.066Z,23.48
2022-08-08T17:55:05.418Z,23.41
2022-08-08T17:57:49.895Z,23.20
2022-08-08T18:00:19.736Z,23.20
2022-08-08T18:02:58.152Z,23.14
2022-08-08T18:05:48.148Z,23.00
2022-08-08T18:08:24.754Z,22.94
2022-08-08T18:11:15.050Z,22.87
2022-08-08T18:13:44.230Z,22.80
2022-08-08T18:16:20.967Z,22.77
2022-08-08T18:18:53.157Z,22.72
2022-08-08T18:21:34.901Z,22.59
2022-08-08T18:24:17.346Z,22.46
2022-08-08T18:26:54.248Z,22.22
2022-08-08T18:29:27.360Z,22.27
2022-08-08T18:32:00.697Z,22.34
2022-08-08T18:34:32.974Z,22.04
2022-08-08T18:37:02.871Z,21.95
2022-08-08T18:39:34.622Z,21.58
2022-08-08T18:42:12.971Z,21.71
2022-08-08T18:44:42.235Z,21.58
2022-08-08T18:47:24.007Z,21.54
2022-08-08T18:49:58.900Z,21.24
2022-08-08T18:52:28.076Z,21.14
2022-08-08T18:54:59.398Z,21.04
2022-08-08T18:57:40.847Z,20.77
2022-08-08T19:00:16.482Z,20.79
2022-08-08T19:02:48.347Z,20.74
2022-08-08T19:05:23.885Z,20.60
2022-08-08T19:07:58.292Z,20.61
2022-08-08T19:10:27.600Z,20.60
2022-08-08T19:12:56.495Z,20.54
2022-08-08T19:15:33.671Z,20.31
2022-08-08T19:18:33.528Z,19.97
2022-08-08T19:20:50.602Z,19.95
2022-08-08T19:23:21.626Z,19.81
2022-08-08T19:26:26.975Z,19.73
2022-08-08T19:28:38.326Z,19.52
2022-08-08T19:31:09.998Z,19.34
2022-08-08T19:34:04.740Z,19.29
2022-08-08T19:36:30.197Z,19.07
2022-08-08T19:38:57.733Z,18.91
2022-08-08T19:41:29.248Z,18.82
2022-08-08T19:44:03.768Z,18.80
2022-08-08T19:46:33.084Z,18.78
2022-08-08T19:49:01.365Z,18.65
2022-08-08T19:51:34.188Z,18.42
2022-08-08T19:54:06.958Z,18.28
2022-08-08T19:56:39.722Z,18.34
2022-08-08T19:59:10.003Z,18.24
2022-08-08T20:02:01.595Z,18.35
2022-08-08T20:04:25.806Z,18.42
2022-08-08T20:06:53.908Z,18.41
2022-08-08T20:09:24.512Z,18.33
2022-08-08T20:11:52.996Z,18.24
2022-08-08T20:14:33.763Z,18.28
2022-08-08T20:17:02.886Z,18.32
2022-08-08T20:19:34.291Z,18.30
2022-08-08T20:22:04.796Z,18.18
2022-08-08T20:24:32.614Z,18.13
2022-08-08T20:27:04.966Z,18.07
2022-08-08T20:29:55.842Z,17.95
2022-08-08T20:32:26.613Z,17.93
2022-08-08T20:35:00.809Z,17.85
2022-08-08T20:37:46.977Z,17.80
2022-08-08T20:40:17.141Z,17.71
2022-08-08T20:42:54.155Z,17.69
2022-08-08T20:45:57.929Z,17.68
2022-08-08T20:48:13.645Z,17.50
2022-08-08T20:50:48.924Z,17.45
2022-08-08T20:54:01.072Z,17.47
2022-08-08T20:56:04.034Z,17.42
2022-08-08T20:58:32.050Z,17.48
2022-08-08T21:01:00.878Z,17.37
2022-08-08T21:03:29.888Z,17.39
2022-08-08T21:05:59.289Z,17.39
2022-08-08T21:08:36.100Z,17.34
2022-08-08T21:11:09.780Z,17.37
2022-08-08T21:13:41.067Z,17.45
2022-08-08T21:16:18.278Z,17.30
2022-08-08T21:18:57.414Z,17.19
2022-08-08T21:21:41.372Z,17.10
2022-08-08T21:24:20.986Z,16.95
2022-08-08T21:26:56.569Z,16.82
2022-08-08T21:30:03.683Z,16.81
2022-08-08T21:32:14.289Z,16.76
2022-08-08T21:34:56.945Z,16.50
2022-08-08T21:37:53.504Z,16.52
2022-08-08T21:40:30.919Z,16.51
2022-08-08T21:42:59.140Z,16.39
2022-08-08T21:47:59.178Z,16.35
2022-08-08T21:48:21.201Z,16.40
2022-08-08T21:50:51.852Z,16.37
2022-08-08T21:54:27.409Z,16.16
2022-08-08T21:56:20.111Z,16.19
2022-08-08T21:58:55.819Z,16.14
2022-08-08T22:01:38.851Z,16.05
2022-08-08T22:04:11.358Z,16.06
2022-08-08T22:06:40.780Z,15.87
2022-08-08T22:09:10.015Z,15.89
2022-08-08T22:11:56.584Z,15.89
2022-08-08T22:14:26.536Z,15.81
2022-08-08T22:16:54.610Z,15.72
2022-08-08T22:19:24.271Z,15.62
2022-08-08T22:21:51.922Z,15.66
2022-08-08T22:24:23.886Z,15.58
2022-08-08T22:27:01.769Z,15.60
2022-08-08T22:29:59.018Z,15.45
2022-08-08T22:32:18.826Z,15.41
2022-08-08T22:34:51.137Z,15.42
2022-08-08T22:37:27.848Z,15.41
2022-08-08T22:40:07.561Z,15.27
2022-08-08T22:42:45.542Z,15.26
2022-08-08T22:45:15.205Z,15.23
2022-08-08T22:47:48.814Z,15.20
2022-08-08T22:50:26.556Z,15.24
2022-08-08T22:53:22.463Z,15.18
2022-08-08T22:55:59.555Z,15.17
2022-08-08T22:58:31.195Z,15.18
2022-08-08T23:01:00.805Z,15.14
2022-08-08T23:03:34.408Z,15.13
2022-08-08T23:06:17.830Z,15.01
2022-08-08T23:08:55.563Z,15.00
2022-08-08T23:11:57.995Z,14.88
2022-08-08T23:14:15.440Z,14.88
2022-08-08T23:16:43.718Z,14.76
2022-08-08T23:19:15.169Z,14.75
2022-08-08T23:21:45.688Z,14.74
2022-08-08T23:24:22.266Z,14.67
2022-08-08T23:26:53.544Z,14.65
2022-08-08T23:29:23.660Z,14.73
2022-08-08T23:31:51.213Z,14.74
2022-08-08T23:34:19.611Z,14.79
2022-08-08T23:36:52.231Z,14.72
2022-08-08T23:39:22.067Z,14.69
2022-08-08T23:41:49.693Z,14.68
2022-08-08T23:44:18.667Z,14.65
2022-08-08T23:49:07.324Z,14.64
2022-08-08T23:49:34.426Z,14.65
2022-08-08T23:52:08.816Z,14.65
2022-08-08T23:54:41.286Z,14.66
2022-08-08T23:57:26.870Z,14.61
